Time;durP1;ratioP1;P1;durP2;ratioP2;P2;SDS_P1;SDS_P2;PMS_P1;PMS_P2;Temp;Humidity;BMP_temperature;BMP_pressure;BME280_temperature;BME280_humidity;BME280_pressure;Samples;Min_cycle;Max_cycle;Signal;HPM_P1;HPM_P2
2023/09/17 00:01:00;;;;;;;130.90;25.33;;;;;;;;;;5111661;28;20023;-38
2023/09/17 00:03:27;;;;;;;118.90;23.80;;;;;;;;;;5093375;28;20032;-38
2023/09/17 00:05:54;;;;;;;124.93;23.65;;;;;;;;;;5102262;28;20439;-38
2023/09/17 00:08:21;;;;;;;103.25;23.65;;;;;;;;;;5096234;28;20028;-39
2023/09/17 00:10:49;;;;;;;98.32;21.88;;;;;;;;;;5110610;28;20098;-39
2023/09/17 00:13:16;;;;;;;99.25;19.90;;;;;;;;;;5111626;28;20031;-39
2023/09/17 00:15:43;;;;;;;94.68;21.15;;;;;;;;;;5111406;28;20028;-39
2023/09/17 00:18:10;;;;;;;104.10;21.73;;;;;;;;;;5100872;28;20035;-37
2023/09/17 00:20:37;;;;;;;115.35;23.00;;;;;;;;;;5107750;28;20024;-37
2023/09/17 00:23:04;;;;;;;106.88;21.95;;;;;;;;;;5093123;28;20024;-39
2023/09/17 00:25:31;;;;;;;102.25;21.20;;;;;;;;;;5102252;28;20543;-38
2023/09/17 00:27:59;;;;;;;93.55;20.85;;;;;;;;;;5098781;28;20050;-38
2023/09/17 00:30:27;;;;;;;100.88;20.58;;;;;;;;;;5094082;28;20432;-38
2023/09/17 00:32:54;;;;;;;103.97;20.63;;;;;;;;;;5100648;28;20035;-38
2023/09/17 00:35:21;;;;;;;96.82;20.67;;;;;;;;;;5093661;28;20089;-37
2023/09/17 00:37:48;;;;;;;85.88;20.20;;;;;;;;;;5094662;28;20521;-37
2023/09/17 00:40:15;;;;;;;88.43;21.05;;;;;;;;;;5090363;28;20115;-38
2023/09/17 00:42:42;;;;;;;97.47;20.17;;;;;;;;;;5095989;28;20024;-39
2023/09/17 00:45:11;;;;;;;102.72;21.77;;;;;;;;;;5100811;28;20035;-34
2023/09/17 00:47:39;;;;;;;121.07;24.20;;;;;;;;;;5109952;28;20641;-37
2023/09/17 00:50:06;;;;;;;97.47;20.75;;;;;;;;;;5114973;28;20023;-38
2023/09/17 00:52:34;;;;;;;128.48;23.02;;;;;;;;;;5112916;28;20051;-38
2023/09/17 00:55:01;;;;;;;104.32;21.70;;;;;;;;;;5114295;28;20043;-38
2023/09/17 00:57:28;;;;;;;99.88;20.45;;;;;;;;;;5115545;27;20091;-39
2023/09/17 00:59:55;;;;;;;101.13;21.25;;;;;;;;;;5109199;27;20381;-38
2023/09/17 01:02:22;;;;;;;119.20;21.60;;;;;;;;;;5119568;27;20027;-38
2023/09/17 01:04:51;;;;;;;110.95;21.08;;;;;;;;;;5113043;28;20384;-38
2023/09/17 01:07:18;;;;;;;97.85;20.30;;;;;;;;;;5114278;28;20077;-38
2023/09/17 01:09:45;;;;;;;93.60;18.77;;;;;;;;;;5114315;28;20043;-38
2023/09/17 01:12:13;;;;;;;97.32;19.38;;;;;;;;;;5114044;28;20473;-39
2023/09/17 01:14:40;;;;;;;93.78;20.90;;;;;;;;;;5112975;28;20034;-38
2023/09/17 01:17:10;;;;;;;91.63;19.58;;;;;;;;;;5114009;28;20048;-38
2023/09/17 01:19:38;;;;;;;89.60;19.85;;;;;;;;;;5114202;28;20429;-38
2023/09/17 01:22:14;;;;;;;91.38;18.60;;;;;;;;;;5114249;27;20163;-38
2023/09/17 01:24:59;;;;;;;91.72;18.35;;;;;;;;;;5124048;27;20032;-38
2023/09/17 01:27:26;;;;;;;85.05;19.25;;;;;;;;;;5113625;28;20384;-38
2023/09/17 01:29:54;;;;;;;92.38;18.95;;;;;;;;;;5113870;28;20028;-38
2023/09/17 01:32:21;;;;;;;89.05;19.42;;;;;;;;;;5119212;27;20063;-38
2023/09/17 01:34:53;;;;;;;96.13;20.13;;;;;;;;;;5131736;27;20088;-38
2023/09/17 01:37:19;;;;;;;77.20;18.35;;;;;;;;;;5131747;27;20067;-39
2023/09/17 01:39:51;;;;;;;80.88;19.02;;;;;;;;;;5123209;27;20080;-37
2023/09/17 01:42:19;;;;;;;81.37;18.47;;;;;;;;;;5121299;27;20027;-38
2023/09/17 01:44:47;;;;;;;89.00;18.02;;;;;;;;;;5116162;27;20029;-38
2023/09/17 01:47:15;;;;;;;87.15;18.98;;;;;;;;;;5119151;27;20041;-38
2023/09/17 01:49:42;;;;;;;82.07;19.08;;;;;;;;;;5124957;27;20031;-38
2023/09/17 01:52:10;;;;;;;78.88;19.25;;;;;;;;;;5123282;27;20052;-39
2023/09/17 01:54:37;;;;;;;87.85;18.35;;;;;;;;;;5119491;27;20031;-39
2023/09/17 01:57:04;;;;;;;83.72;19.02;;;;;;;;;;5117640;27;20040;-39
2023/09/17 01:59:31;;;;;;;82.10;19.35;;;;;;;;;;5123707;27;20027;-38
2023/09/17 02:01:59;;;;;;;66.63;18.40;;;;;;;;;;5116540;27;20089;-38
2023/09/17 02:04:26;;;;;;;90.70;18.88;;;;;;;;;;5124913;27;20102;-38
2023/09/17 02:06:54;;;;;;;70.90;17.83;;;;;;;;;;5132967;27;20055;-38
2023/09/17 02:09:21;;;;;;;76.43;17.83;;;;;;;;;;5103994;28;20562;-40
2023/09/17 02:11:49;;;;;;;88.03;19.52;;;;;;;;;;5117637;27;20115;-36
2023/09/17 02:14:17;;;;;;;79.32;19.65;;;;;;;;;;5106796;28;20020;-38
2023/09/17 02:16:44;;;;;;;97.00;19.10;;;;;;;;;;5112836;28;20035;-37
2023/09/17 02:19:11;;;;;;;113.60;20.23;;;;;;;;;;5110437;28;20027;-38
2023/09/17 02:21:38;;;;;;;106.20;20.17;;;;;;;;;;5117818;27;20560;-38
2023/09/17 02:24:05;;;;;;;81.15;18.73;;;;;;;;;;5108536;27;20034;-37
2023/09/17 02:26:32;;;;;;;84.20;19.15;;;;;;;;;;5111442;27;20420;-37
2023/09/17 02:28:59;;;;;;;83.15;19.58;;;;;;;;;;5120126;27;20027;-37
2023/09/17 02:31:27;;;;;;;100.40;19.73;;;;;;;;;;5118385;27;20134;-37
2023/09/17 02:33:54;;;;;;;78.72;18.55;;;;;;;;;;5111046;28;20046;-37
2023/09/17 02:36:22;;;;;;;78.72;17.92;;;;;;;;;;5107828;28;20023;-37
2023/09/17 02:38:49;;;;;;;88.40;17.95;;;;;;;;;;5105370;28;20081;-38
2023/09/17 02:41:16;;;;;;;70.55;17.20;;;;;;;;;;5106157;28;20027;-37
2023/09/17 02:43:43;;;;;;;65.13;16.02;;;;;;;;;;5101017;28;20028;-37
2023/09/17 02:46:11;;;;;;;93.47;19.45;;;;;;;;;;5112076;28;20565;-36
2023/09/17 02:48:38;;;;;;;70.72;16.73;;;;;;;;;;5112287;28;20076;-38
2023/09/17 02:51:05;;;;;;;65.47;17.48;;;;;;;;;;5117139;27;20028;-38
2023/09/17 02:53:32;;;;;;;63.10;16.02;;;;;;;;;;5127835;27;20068;-37
2023/09/17 02:55:59;;;;;;;62.03;14.63;;;;;;;;;;5118158;27;20550;-37
2023/09/17 02:58:27;;;;;;;76.40;17.02;;;;;;;;;;5105466;28;20046;-37
2023/09/17 03:00:54;;;;;;;72.53;17.30;;;;;;;;;;5101239;28;20023;-37
2023/09/17 03:03:22;;;;;;;79.65;16.02;;;;;;;;;;5110611;28;20107;-37
2023/09/17 03:05:49;;;;;;;81.25;15.43;;;;;;;;;;5110868;28;20128;-38
2023/09/17 03:08:16;;;;;;;85.82;15.65;;;;;;;;;;5110695;28;20036;-37
2023/09/17 03:10:43;;;;;;;63.38;15.10;;;;;;;;;;5108712;28;20031;-37
2023/09/17 03:13:14;;;;;;;78.90;16.42;;;;;;;;;;5107307;27;20035;-38
2023/09/17 03:15:42;;;;;;;65.60;15.82;;;;;;;;;;5118265;27;20446;-38
2023/09/17 03:18:09;;;;;;;78.57;15.70;;;;;;;;;;5113505;27;20063;-37
2023/09/17 03:20:38;;;;;;;74.18;15.02;;;;;;;;;;5106340;28;20508;-38
2023/09/17 03:23:05;;;;;;;68.90;14.63;;;;;;;;;;5099536;28;20115;-37
2023/09/17 03:25:32;;;;;;;73.28;15.48;;;;;;;;;;5109433;28;20024;-37
2023/09/17 03:27:59;;;;;;;73.72;15.35;;;;;;;;;;5104962;28;20024;-38
2023/09/17 03:30:27;;;;;;;84.93;14.63;;;;;;;;;;5081145;28;20024;-38
2023/09/17 03:32:54;;;;;;;88.38;14.32;;;;;;;;;;5102240;28;20050;-37
2023/09/17 03:35:21;;;;;;;66.28;15.18;;;;;;;;;;5107642;28;20016;-37
2023/09/17 03:37:48;;;;;;;67.97;16.70;;;;;;;;;;5104698;28;20497;-37
2023/09/17 03:40:15;;;;;;;60.60;14.73;;;;;;;;;;5107410;28;20032;-38
2023/09/17 03:42:43;;;;;;;65.72;14.30;;;;;;;;;;5111560;28;20073;-38
2023/09/17 03:45:11;;;;;;;63.58;14.27;;;;;;;;;;5107207;28;20082;-37
2023/09/17 03:47:39;;;;;;;63.00;14.23;;;;;;;;;;5111272;28;20509;-37
2023/09/17 03:50:08;;;;;;;60.42;13.50;;;;;;;;;;5111692;28;20105;-37
2023/09/17 03:52:36;;;;;;;46.83;11.68;;;;;;;;;;5110182;28;20075;-37
2023/09/17 03:55:05;;;;;;;51.28;11.20;;;;;;;;;;5110175;28;20031;-37
2023/09/17 03:57:34;;;;;;;60.95;11.45;;;;;;;;;;5105445;28;20096;-37
2023/09/17 04:00:06;;;;;;;66.47;11.27;;;;;;;;;;5108651;28;20055;-38
2023/09/17 04:02:36;;;;;;;63.30;12.40;;;;;;;;;;5111371;28;20031;-37
2023/09/17 04:05:21;;;;;;;54.38;11.45;;;;;;;;;;5113900;28;20031;-37
2023/09/17 04:07:49;;;;;;;65.63;11.57;;;;;;;;;;5115283;28;20427;-35
2023/09/17 04:10:17;;;;;;;64.70;12.38;;;;;;;;;;5115438;28;20540;-37
2023/09/17 04:12:45;;;;;;;65.55;13.10;;;;;;;;;;5115793;28;20031;-37
2023/09/17 04:15:17;;;;;;;66.75;12.32;;;;;;;;;;5113962;28;20027;-37
2023/09/17 04:17:45;;;;;;;80.25;13.77;;;;;;;;;;5113708;28;20044;-37
2023/09/17 04:20:30;;;;;;;58.13;11.10;;;;;;;;;;5108019;28;20043;-38
2023/09/17 04:22:57;;;;;;;53.30;12.90;;;;;;;;;;5103783;28;20028;-39
2023/09/17 04:25:25;;;;;;;57.22;12.68;;;;;;;;;;5108440;28;20024;-37
2023/09/17 04:27:52;;;;;;;70.20;11.85;;;;;;;;;;5103511;28;20585;-37
2023/09/17 04:30:19;;;;;;;64.95;12.90;;;;;;;;;;5111647;28;20034;-38
2023/09/17 04:32:47;;;;;;;64.50;11.55;;;;;;;;;;5112924;28;20263;-37
2023/09/17 04:35:18;;;;;;;56.58;10.60;;;;;;;;;;5090763;28;20139;-38
2023/09/17 04:37:47;;;;;;;36.97;10.07;;;;;;;;;;5105016;28;20038;-38
2023/09/17 04:40:14;;;;;;;46.17;9.88;;;;;;;;;;5105690;28;20023;-38
2023/09/17 04:42:48;;;;;;;61.75;10.93;;;;;;;;;;5113614;28;20048;-37
2023/09/17 04:45:21;;;;;;;54.30;10.63;;;;;;;;;;5109772;28;20362;-37
2023/09/17 04:47:49;;;;;;;52.88;11.13;;;;;;;;;;5113370;28;20097;-37
2023/09/17 04:50:16;;;;;;;43.50;9.88;;;;;;;;;;5113600;28;20028;-37
2023/09/17 04:52:43;;;;;;;49.63;9.45;;;;;;;;;;5114804;28;20436;-37
2023/09/17 04:55:10;;;;;;;64.80;10.75;;;;;;;;;;5115195;28;20024;-37
2023/09/17 04:57:37;;;;;;;60.60;10.93;;;;;;;;;;5114782;28;20115;-37
2023/09/17 05:00:10;;;;;;;56.15;9.63;;;;;;;;;;5114978;28;20196;-37
2023/09/17 05:02:39;;;;;;;39.53;9.85;;;;;;;;;;5114164;28;20482;-38
2023/09/17 05:05:07;;;;;;;49.85;9.18;;;;;;;;;;5114141;28;20031;-38
2023/09/17 05:07:34;;;;;;;42.50;9.13;;;;;;;;;;5114592;28;20031;-38
2023/09/17 05:10:01;;;;;;;50.38;8.75;;;;;;;;;;5114642;28;20047;-37
2023/09/17 05:12:28;;;;;;;35.35;8.32;;;;;;;;;;5114607;28;20388;-37
2023/09/17 05:14:54;;;;;;;38.13;8.48;;;;;;;;;;5113321;28;20034;-37
2023/09/17 05:17:22;;;;;;;41.20;8.05;;;;;;;;;;5114500;28;20485;-37
2023/09/17 05:19:49;;;;;;;43.65;8.07;;;;;;;;;;5114596;28;20024;-37
2023/09/17 05:22:16;;;;;;;38.75;7.90;;;;;;;;;;5114597;28;20362;-37
2023/09/17 05:24:43;;;;;;;35.15;7.88;;;;;;;;;;5114476;28;20019;-38
2023/09/17 05:27:10;;;;;;;34.72;6.53;;;;;;;;;;5114530;28;20373;-38
2023/09/17 05:29:37;;;;;;;34.63;7.35;;;;;;;;;;5114329;28;20106;-37
2023/09/17 05:32:05;;;;;;;35.88;7.53;;;;;;;;;;5114308;28;20020;-37
2023/09/17 05:34:32;;;;;;;34.95;7.10;;;;;;;;;;5113796;28;20040;-37
2023/09/17 05:36:59;;;;;;;32.88;7.05;;;;;;;;;;5113156;28;20043;-38
2023/09/17 05:39:26;;;;;;;31.02;7.00;;;;;;;;;;5114217;28;20023;-37
2023/09/17 05:41:55;;;;;;;25.27;5.40;;;;;;;;;;5113922;28;20027;-37
2023/09/17 05:44:22;;;;;;;24.35;5.50;;;;;;;;;;5114001;28;20431;-37
2023/09/17 05:46:49;;;;;;;35.03;6.18;;;;;;;;;;5113905;28;20024;-37
2023/09/17 05:49:16;;;;;;;27.38;6.25;;;;;;;;;;5114029;28;20030;-37
2023/09/17 05:51:44;;;;;;;31.40;6.07;;;;;;;;;;5113506;28;20047;-37
2023/09/17 05:54:11;;;;;;;25.63;6.38;;;;;;;;;;5113801;28;20032;-37
2023/09/17 05:56:38;;;;;;;27.17;5.72;;;;;;;;;;5110500;28;20477;-37
2023/09/17 05:59:09;;;;;;;26.10;5.53;;;;;;;;;;5113330;28;20035;-37
2023/09/17 06:01:40;;;;;;;18.02;4.97;;;;;;;;;;5110910;28;20027;-37
2023/09/17 06:04:07;;;;;;;24.13;6.28;;;;;;;;;;5112994;28;20127;-38
2023/09/17 06:06:35;;;;;;;38.90;6.03;;;;;;;;;;5113326;28;20022;-38
2023/09/17 06:09:03;;;;;;;22.92;5.18;;;;;;;;;;5113610;28;20107;-38
2023/09/17 06:11:30;;;;;;;23.17;5.53;;;;;;;;;;5113422;28;20039;-38
2023/09/17 06:13:57;;;;;;;18.60;5.18;;;;;;;;;;5113336;28;20118;-38
2023/09/17 06:16:24;;;;;;;21.75;4.88;;;;;;;;;;5113439;28;20450;-38
2023/09/17 06:18:52;;;;;;;38.80;5.82;;;;;;;;;;5113295;28;20031;-38
2023/09/17 06:21:19;;;;;;;27.23;5.07;;;;;;;;;;5112924;28;20106;-38
2023/09/17 06:23:46;;;;;;;23.95;5.35;;;;;;;;;;5112797;28;20501;-37
2023/09/17 06:26:13;;;;;;;32.42;5.47;;;;;;;;;;5112921;28;20032;-38
2023/09/17 06:28:40;;;;;;;24.73;5.15;;;;;;;;;;5113011;28;20094;-38
2023/09/17 06:31:08;;;;;;;24.77;4.95;;;;;;;;;;5096422;27;20031;-37
2023/09/17 06:33:35;;;;;;;15.15;3.97;;;;;;;;;;5119945;27;20149;-37
2023/09/17 06:36:03;;;;;;;17.10;4.10;;;;;;;;;;5116002;27;20027;-38
2023/09/17 06:38:30;;;;;;;20.63;4.72;;;;;;;;;;5112361;28;20042;-38
2023/09/17 06:40:57;;;;;;;18.20;5.05;;;;;;;;;;5112976;28;20023;-37
2023/09/17 06:43:24;;;;;;;20.80;4.07;;;;;;;;;;5112637;28;20019;-37
2023/09/17 06:45:51;;;;;;;16.88;3.65;;;;;;;;;;5112825;28;20439;-37
2023/09/17 06:48:18;;;;;;;13.48;4.03;;;;;;;;;;5112764;28;20031;-37
2023/09/17 06:50:45;;;;;;;40.67;5.47;;;;;;;;;;5112115;28;20023;-38
2023/09/17 06:53:13;;;;;;;19.45;4.50;;;;;;;;;;5112583;28;20055;-37
2023/09/17 06:55:40;;;;;;;20.27;4.55;;;;;;;;;;5112762;28;20031;-38
2023/09/17 06:58:08;;;;;;;17.95;3.90;;;;;;;;;;5112465;28;20035;-38
2023/09/17 07:00:35;;;;;;;21.25;3.90;;;;;;;;;;5112491;28;20070;-38
2023/09/17 07:03:03;;;;;;;22.10;4.13;;;;;;;;;;5112617;28;20015;-38
2023/09/17 07:05:30;;;;;;;16.30;3.88;;;;;;;;;;5112531;28;20039;-38
2023/09/17 07:07:57;;;;;;;15.40;3.50;;;;;;;;;;5112413;28;20555;-38
2023/09/17 07:10:24;;;;;;;17.35;4.10;;;;;;;;;;5112574;28;20028;-38
2023/09/17 07:12:51;;;;;;;16.08;3.47;;;;;;;;;;5112442;28;20038;-37
2023/09/17 07:15:20;;;;;;;19.33;3.33;;;;;;;;;;5112250;28;20539;-37
2023/09/17 07:17:47;;;;;;;13.63;3.42;;;;;;;;;;5111961;28;20118;-38
2023/09/17 07:20:14;;;;;;;12.60;3.65;;;;;;;;;;5112463;28;20032;-38
2023/09/17 07:22:42;;;;;;;16.35;3.72;;;;;;;;;;5112388;28;20027;-38
2023/09/17 07:25:09;;;;;;;15.93;3.47;;;;;;;;;;5112311;28;20385;-38
2023/09/17 07:27:37;;;;;;;13.85;3.17;;;;;;;;;;5111579;28;20016;-37
2023/09/17 07:30:05;;;;;;;9.23;2.92;;;;;;;;;;5111523;28;20389;-38
2023/09/17 07:32:32;;;;;;;14.93;3.75;;;;;;;;;;5126407;27;20023;-38
2023/09/17 07:35:03;;;;;;;14.45;3.22;;;;;;;;;;5112117;28;20020;-38
2023/09/17 07:37:30;;;;;;;27.65;3.70;;;;;;;;;;5110883;28;20036;-37
2023/09/17 07:40:01;;;;;;;20.50;3.30;;;;;;;;;;5111483;28;20032;-38
2023/09/17 07:42:28;;;;;;;21.80;4.07;;;;;;;;;;5111427;28;20031;-38
2023/09/17 07:44:55;;;;;;;16.95;2.80;;;;;;;;;;5100645;28;20039;-38
2023/09/17 07:47:22;;;;;;;16.15;2.70;;;;;;;;;;5124430;28;20023;-38
2023/09/17 07:49:49;;;;;;;10.68;2.50;;;;;;;;;;5121597;28;20027;-37
2023/09/17 07:52:16;;;;;;;11.45;2.42;;;;;;;;;;5126086;28;20571;-38
2023/09/17 07:54:43;;;;;;;12.20;2.50;;;;;;;;;;5132315;28;20142;-38
2023/09/17 07:57:11;;;;;;;14.02;2.63;;;;;;;;;;5122255;28;20039;-38
2023/09/17 07:59:38;;;;;;;8.88;2.10;;;;;;;;;;5113880;28;20031;-37
2023/09/17 08:02:05;;;;;;;6.93;1.85;;;;;;;;;;5122961;28;20028;-37
2023/09/17 08:04:32;;;;;;;8.80;1.90;;;;;;;;;;5132069;28;20030;-37
2023/09/17 08:06:59;;;;;;;7.40;1.67;;;;;;;;;;5132231;28;20054;-37
2023/09/17 08:09:27;;;;;;;7.38;1.45;;;;;;;;;;5132140;28;20024;-37
2023/09/17 08:11:53;;;;;;;7.07;1.88;;;;;;;;;;5132040;28;20019;-37
2023/09/17 08:14:22;;;;;;;5.85;1.58;;;;;;;;;;5132260;28;20102;-38
2023/09/17 08:16:50;;;;;;;4.82;1.38;;;;;;;;;;5131933;28;20212;-38
2023/09/17 08:19:17;;;;;;;5.28;1.33;;;;;;;;;;5132239;28;20027;-38
2023/09/17 08:21:44;;;;;;;5.38;1.38;;;;;;;;;;5132029;28;20027;-38
2023/09/17 08:24:11;;;;;;;5.82;1.30;;;;;;;;;;5132114;28;20030;-38
2023/09/17 08:26:37;;;;;;;4.47;1.30;;;;;;;;;;5131998;28;20147;-38
2023/09/17 08:29:05;;;;;;;6.45;1.35;;;;;;;;;;5131845;28;20102;-38
2023/09/17 08:31:32;;;;;;;6.55;1.70;;;;;;;;;;5131983;28;20084;-38
2023/09/17 08:34:03;;;;;;;7.00;1.50;;;;;;;;;;5131877;28;20504;-38
2023/09/17 08:36:31;;;;;;;5.32;1.23;;;;;;;;;;5131710;28;20030;-38
2023/09/17 08:38:58;;;;;;;13.48;1.40;;;;;;;;;;5132089;28;20473;-38
2023/09/17 08:41:25;;;;;;;7.70;1.80;;;;;;;;;;5132087;28;20019;-38
2023/09/17 08:43:55;;;;;;;8.85;2.22;;;;;;;;;;5131987;28;20031;-38
2023/09/17 08:46:22;;;;;;;7.60;2.08;;;;;;;;;;5131673;28;20600;-38
2023/09/17 08:48:49;;;;;;;6.40;1.30;;;;;;;;;;5132514;27;20033;-38
2023/09/17 08:51:19;;;;;;;9.15;1.70;;;;;;;;;;5135261;27;20037;-38
2023/09/17 08:54:04;;;;;;;8.07;1.60;;;;;;;;;;5135722;27;20046;-38
2023/09/17 08:56:32;;;;;;;6.93;1.75;;;;;;;;;;5116814;27;20110;-38
2023/09/17 08:59:01;;;;;;;7.65;1.33;;;;;;;;;;5135506;27;20035;-38
2023/09/17 09:01:29;;;;;;;7.35;1.48;;;;;;;;;;5135399;27;20033;-38
2023/09/17 09:03:56;;;;;;;3.83;1.25;;;;;;;;;;5135469;27;20015;-38
2023/09/17 09:06:29;;;;;;;8.00;1.40;;;;;;;;;;5135306;27;20392;-38
2023/09/17 09:08:56;;;;;;;9.55;1.40;;;;;;;;;;5135416;27;20023;-38
2023/09/17 09:11:23;;;;;;;6.43;1.20;;;;;;;;;;5135420;27;20094;-38
2023/09/17 09:13:53;;;;;;;8.73;1.02;;;;;;;;;;5135432;27;20430;-38
2023/09/17 09:16:20;;;;;;;4.93;1.20;;;;;;;;;;5134929;27;20035;-38
2023/09/17 09:18:47;;;;;;;4.97;1.13;;;;;;;;;;5135243;27;20027;-38
2023/09/17 09:21:14;;;;;;;3.60;0.70;;;;;;;;;;5135084;27;20413;-38
2023/09/17 09:23:41;;;;;;;6.55;1.30;;;;;;;;;;5116585;27;20110;-38
2023/09/17 09:26:08;;;;;;;6.18;1.10;;;;;;;;;;5134912;27;20538;-38
2023/09/17 09:28:35;;;;;;;3.40;0.90;;;;;;;;;;5135116;27;20053;-38
2023/09/17 09:31:02;;;;;;;1.92;0.75;;;;;;;;;;5116380;27;20026;-38
2023/09/17 09:33:29;;;;;;;4.38;0.65;;;;;;;;;;5134790;27;20054;-38
2023/09/17 09:35:57;;;;;;;6.40;0.80;;;;;;;;;;5134817;27;20011;-38
2023/09/17 09:38:24;;;;;;;4.68;0.70;;;;;;;;;;5134482;27;20051;-38
2023/09/17 09:40:51;;;;;;;4.22;0.82;;;;;;;;;;5116369;27;20027;-38
2023/09/17 09:43:31;;;;;;;4.30;0.80;;;;;;;;;;5116188;27;20071;-37
2023/09/17 09:46:06;;;;;;;5.25;0.80;;;;;;;;;;5134696;27;20528;-38
2023/09/17 09:48:37;;;;;;;3.50;0.70;;;;;;;;;;5134509;27;20031;-38
2023/09/17 09:51:05;;;;;;;11.13;0.67;;;;;;;;;;5134280;27;20457;-38
2023/09/17 09:53:32;;;;;;;1.65;0.80;;;;;;;;;;5134444;27;20070;-37
2023/09/17 09:55:59;;;;;;;8.98;1.23;;;;;;;;;;5134297;27;20107;-38
2023/09/17 09:58:26;;;;;;;11.02;1.20;;;;;;;;;;5134359;27;20051;-38
2023/09/17 10:00:54;;;;;;;5.03;1.35;;;;;;;;;;5111837;28;20110;-38
2023/09/17 10:03:21;;;;;;;5.13;0.90;;;;;;;;;;5129899;27;20046;-38
2023/09/17 10:05:48;;;;;;;4.45;0.90;;;;;;;;;;5134139;27;20038;-38
2023/09/17 10:08:17;;;;;;;6.20;1.00;;;;;;;;;;5134227;27;20481;-38
2023/09/17 10:10:44;;;;;;;4.88;0.90;;;;;;;;;;5134036;27;20109;-38
2023/09/17 10:13:11;;;;;;;4.20;0.70;;;;;;;;;;5134189;27;20028;-38
2023/09/17 10:15:41;;;;;;;4.05;1.05;;;;;;;;;;5134103;27;20507;-38
2023/09/17 10:18:10;;;;;;;5.38;0.88;;;;;;;;;;5133762;27;20047;-38
2023/09/17 10:20:42;;;;;;;7.25;1.00;;;;;;;;;;5133965;27;20058;-38
2023/09/17 10:23:10;;;;;;;4.43;0.90;;;;;;;;;;5133878;27;20042;-38
2023/09/17 10:25:38;;;;;;;2.38;0.65;;;;;;;;;;5133719;27;20253;-38
2023/09/17 10:28:06;;;;;;;2.15;1.05;;;;;;;;;;5133813;27;20373;-38
2023/09/17 10:30:33;;;;;;;2.80;0.60;;;;;;;;;;5133859;27;20031;-37
2023/09/17 10:33:01;;;;;;;2.53;0.50;;;;;;;;;;5133706;27;20182;-38
2023/09/17 10:35:29;;;;;;;2.70;0.60;;;;;;;;;;5133681;27;20725;-38
2023/09/17 10:37:59;;;;;;;7.47;0.75;;;;;;;;;;5133565;27;20427;-38
2023/09/17 10:40:26;;;;;;;2.08;0.70;;;;;;;;;;5133527;27;20110;-38
2023/09/17 10:42:56;;;;;;;1.50;0.60;;;;;;;;;;5133621;27;20016;-38
2023/09/17 10:45:23;;;;;;;2.42;0.70;;;;;;;;;;5133579;27;20520;-38
2023/09/17 10:47:51;;;;;;;5.38;0.50;;;;;;;;;;5133269;27;20027;-38
2023/09/17 10:50:19;;;;;;;3.25;0.75;;;;;;;;;;5133525;27;20039;-38
2023/09/17 10:52:46;;;;;;;2.22;0.68;;;;;;;;;;5133271;27;20053;-38
2023/09/17 10:55:13;;;;;;;3.65;0.65;;;;;;;;;;5133288;27;20369;-38
2023/09/17 10:57:41;;;;;;;3.97;0.60;;;;;;;;;;5133138;27;20476;-37
2023/09/17 11:00:14;;;;;;;2.05;0.68;;;;;;;;;;5114729;27;20084;-38
2023/09/17 11:02:47;;;;;;;1.83;0.50;;;;;;;;;;5129189;27;20055;-38
2023/09/17 11:05:15;;;;;;;3.40;0.60;;;;;;;;;;5112533;28;20026;-38
2023/09/17 11:07:42;;;;;;;2.03;0.55;;;;;;;;;;5112434;28;20028;-38
2023/09/17 11:10:14;;;;;;;4.82;0.60;;;;;;;;;;5112391;28;20746;-38
2023/09/17 11:12:41;;;;;;;1.95;0.63;;;;;;;;;;5111324;28;20031;-38
2023/09/17 11:15:10;;;;;;;1.38;0.40;;;;;;;;;;5112464;28;20020;-38
2023/09/17 11:17:38;;;;;;;9.02;0.60;;;;;;;;;;5112166;28;20035;-38
2023/09/17 11:20:12;;;;;;;6.22;0.80;;;;;;;;;;5112156;28;20077;-38
2023/09/17 11:22:44;;;;;;;2.67;0.40;;;;;;;;;;5112145;28;20107;-38
2023/09/17 11:25:11;;;;;;;1.85;0.50;;;;;;;;;;5094075;28;20108;-38
2023/09/17 11:27:48;;;;;;;1.15;0.47;;;;;;;;;;5112043;28;20031;-38
2023/09/17 11:30:19;;;;;;;2.08;0.75;;;;;;;;;;5112260;28;20024;-38
2023/09/17 11:32:55;;;;;;;2.72;0.63;;;;;;;;;;5112263;28;20486;-38
2023/09/17 11:35:23;;;;;;;5.88;0.55;;;;;;;;;;5112137;28;20027;-38
2023/09/17 11:37:50;;;;;;;3.55;0.50;;;;;;;;;;5111759;28;20038;-38
2023/09/17 11:40:18;;;;;;;0.30;0.20;;;;;;;;;;5112127;28;20100;-37
2023/09/17 11:42:45;;;;;;;2.15;0.60;;;;;;;;;;5111882;28;20034;-38
2023/09/17 11:45:13;;;;;;;2.97;0.40;;;;;;;;;;5111939;28;20135;-38
2023/09/17 11:47:40;;;;;;;2.88;0.40;;;;;;;;;;5111646;28;20107;-38
2023/09/17 11:50:10;;;;;;;3.53;0.40;;;;;;;;;;5111667;28;20044;-38
2023/09/17 11:52:37;;;;;;;0.80;0.30;;;;;;;;;;5111799;28;20047;-38
2023/09/17 11:55:11;;;;;;;1.80;0.47;;;;;;;;;;5111853;28;20101;-38
2023/09/17 11:57:38;;;;;;;4.07;0.50;;;;;;;;;;5111553;28;20073;-38
2023/09/17 12:00:15;;;;;;;11.50;1.23;;;;;;;;;;5111899;28;20542;-38
2023/09/17 12:02:44;;;;;;;18.13;1.38;;;;;;;;;;5111837;28;20024;-38
2023/09/17 12:05:11;;;;;;;20.17;1.02;;;;;;;;;;5111739;28;20039;-38
2023/09/17 12:07:38;;;;;;;5.68;0.90;;;;;;;;;;5111561;28;20042;-38
2023/09/17 12:10:06;;;;;;;7.65;0.70;;;;;;;;;;5111672;28;20385;-38
2023/09/17 12:12:37;;;;;;;4.80;0.50;;;;;;;;;;5111619;28;20028;-37
2023/09/17 12:15:12;;;;;;;7.82;0.90;;;;;;;;;;5111779;28;20069;-38
2023/09/17 12:17:41;;;;;;;8.52;1.10;;;;;;;;;;5111469;28;20421;-38
2023/09/17 12:20:43;;;;;;;13.57;1.50;;;;;;;;;;5111578;28;20093;-38
2023/09/17 12:23:16;;;;;;;17.30;1.38;;;;;;;;;;5111473;28;20035;-38
2023/09/17 12:25:44;;;;;;;10.88;0.98;;;;;;;;;;5115284;28;20496;-38
2023/09/17 12:28:11;;;;;;;9.60;1.08;;;;;;;;;;5115486;28;20145;-38
2023/09/17 12:30:38;;;;;;;18.27;1.27;;;;;;;;;;5097156;28;20461;-38
2023/09/17 12:33:05;;;;;;;8.00;1.05;;;;;;;;;;5115442;28;20491;-38
2023/09/17 12:35:33;;;;;;;11.13;1.02;;;;;;;;;;5115519;28;20032;-38
2023/09/17 12:38:00;;;;;;;15.38;0.85;;;;;;;;;;5115069;28;20067;-37
2023/09/17 12:40:27;;;;;;;7.10;1.42;;;;;;;;;;5115270;28;20080;-38
2023/09/17 12:42:55;;;;;;;11.63;1.10;;;;;;;;;;5115381;28;20034;-38
2023/09/17 12:45:23;;;;;;;11.27;1.30;;;;;;;;;;5115158;28;20023;-38
2023/09/17 12:47:50;;;;;;;47.80;3.53;;;;;;;;;;5115217;28;20047;-38
2023/09/17 12:50:19;;;;;;;24.10;2.17;;;;;;;;;;5115297;28;20027;-38
2023/09/17 12:52:46;;;;;;;27.17;2.17;;;;;;;;;;5114641;28;20051;-38
2023/09/17 12:55:14;;;;;;;44.78;3.60;;;;;;;;;;5115019;28;20063;-38
2023/09/17 12:57:41;;;;;;;40.08;3.80;;;;;;;;;;5114904;28;20039;-38
2023/09/17 13:00:09;;;;;;;52.17;4.80;;;;;;;;;;5114986;28;20044;-38
2023/09/17 13:02:37;;;;;;;50.15;3.85;;;;;;;;;;5115026;28;20048;-38
2023/09/17 13:05:04;;;;;;;103.80;6.97;;;;;;;;;;5114782;28;20435;-38
2023/09/17 13:07:31;;;;;;;99.65;7.55;;;;;;;;;;5114587;28;20031;-38
2023/09/17 13:09:59;;;;;;;108.90;7.22;;;;;;;;;;5114892;28;20030;-37
2023/09/17 13:12:27;;;;;;;84.13;7.10;;;;;;;;;;5114852;28;20460;-38
2023/09/17 13:14:55;;;;;;;80.90;6.00;;;;;;;;;;5114843;28;20053;-38
2023/09/17 13:17:23;;;;;;;56.90;4.47;;;;;;;;;;5114553;28;20493;-38
2023/09/17 13:19:50;;;;;;;66.20;5.97;;;;;;;;;;5114400;28;20744;-38
2023/09/17 13:22:18;;;;;;;63.42;4.90;;;;;;;;;;5114377;28;20074;-38
2023/09/17 13:24:45;;;;;;;71.60;5.68;;;;;;;;;;5114562;28;20501;-38
2023/09/17 13:27:17;;;;;;;74.80;5.55;;;;;;;;;;5114225;28;20032;-38
2023/09/17 13:29:48;;;;;;;78.55;6.13;;;;;;;;;;5114719;28;20488;-38
2023/09/17 13:32:17;;;;;;;106.38;8.80;;;;;;;;;;5114191;28;20059;-38
2023/09/17 13:34:45;;;;;;;154.20;12.18;;;;;;;;;;5114258;28;20031;-38
2023/09/17 13:37:12;;;;;;;153.52;12.05;;;;;;;;;;5113309;28;20028;-38
2023/09/17 13:39:40;;;;;;;128.73;10.23;;;;;;;;;;5114258;28;20028;-38
2023/09/17 13:42:07;;;;;;;111.85;10.45;;;;;;;;;;5114283;27;20026;-38
2023/09/17 13:44:34;;;;;;;94.00;8.77;;;;;;;;;;5114453;28;20416;-38
2023/09/17 13:47:01;;;;;;;73.63;6.47;;;;;;;;;;5114115;28;20314;-38
2023/09/17 13:49:28;;;;;;;93.63;7.88;;;;;;;;;;5113975;28;20483;-38
2023/09/17 13:51:55;;;;;;;81.60;7.15;;;;;;;;;;5119203;27;20035;-38
2023/09/17 13:54:22;;;;;;;68.13;7.00;;;;;;;;;;5134411;27;20026;-38
2023/09/17 13:56:49;;;;;;;41.33;5.03;;;;;;;;;;5134481;27;20031;-37
2023/09/17 13:59:16;;;;;;;36.97;3.83;;;;;;;;;;5127284;27;20043;-37
2023/09/17 14:01:45;;;;;;;56.22;5.60;;;;;;;;;;5121152;27;20031;-38
2023/09/17 14:04:12;;;;;;;64.18;5.07;;;;;;;;;;5110544;27;20402;-38
2023/09/17 14:06:39;;;;;;;62.22;5.82;;;;;;;;;;5104997;28;20474;-38
2023/09/17 14:09:06;;;;;;;104.05;8.10;;;;;;;;;;5113090;28;20064;-38
2023/09/17 14:11:35;;;;;;;67.60;6.80;;;;;;;;;;5118127;27;20034;-38
2023/09/17 14:14:03;;;;;;;63.97;5.97;;;;;;;;;;5117886;27;20036;-38
2023/09/17 14:16:30;;;;;;;56.03;5.78;;;;;;;;;;5118730;27;20035;-38
2023/09/17 14:18:57;;;;;;;75.47;7.15;;;;;;;;;;5117176;27;20023;-38
2023/09/17 14:21:24;;;;;;;68.85;6.07;;;;;;;;;;5113947;27;20465;-38
2023/09/17 14:23:51;;;;;;;84.68;7.53;;;;;;;;;;5121405;27;20095;-38
2023/09/17 14:26:18;;;;;;;63.97;5.43;;;;;;;;;;5115371;27;20027;-38
2023/09/17 14:28:45;;;;;;;65.35;4.78;;;;;;;;;;5116082;27;20121;-37
2023/09/17 14:31:12;;;;;;;63.28;5.28;;;;;;;;;;5112422;28;20027;-37
2023/09/17 14:33:40;;;;;;;98.53;7.10;;;;;;;;;;5112479;28;20033;-38